RRR6624 EGVN-EGDM

Flight info

Callsign RRR6624
Flight time 0h 13m
Altitude 6000
Route OPR
Aircraft C17/H-SDFGHIRTUWXYZ/LB1

Departure

Time 2026-04-26 09:33
Airport RAF Brize Norton (EGVN)

Arrival

Time 2026-04-26 09:46
Airport MoD Boscombe Down (EGDM)
Time Latitude Longitude Altitude Speed Heading
2026-04-26 08:48 51.76019 -1.57686 262 ft 0 kts 103°
2026-04-26 09:22 51.75999 -1.57647 261 ft 9 kts 147°
2026-04-26 09:22 51.75951 -1.57578 261 ft 10 kts 121°
2026-04-26 09:23 51.75891 -1.57537 261 ft 11 kts 184°
2026-04-26 09:23 51.75807 -1.57569 261 ft 14 kts 197°
2026-04-26 09:23 51.75706 -1.57621 261 ft 16 kts 198°
2026-04-26 09:23 51.75602 -1.57677 262 ft 15 kts 202°
2026-04-26 09:24 51.75506 -1.57743 261 ft 15 kts 205°
2026-04-26 09:24 51.75416 -1.57819 262 ft 14 kts 208°
2026-04-26 09:24 51.75329 -1.57896 261 ft 14 kts 208°
2026-04-26 09:24 51.75244 -1.57972 261 ft 14 kts 209°
2026-04-26 09:25 51.75161 -1.58044 261 ft 13 kts 207°
2026-04-26 09:25 51.75079 -1.58111 261 ft 13 kts 208°
2026-04-26 09:25 51.74996 -1.58185 261 ft 14 kts 209°
2026-04-26 09:25 51.74913 -1.58257 261 ft 14 kts 208°
2026-04-26 09:26 51.74830 -1.58326 261 ft 13 kts 207°
2026-04-26 09:26 51.74749 -1.58394 264 ft 13 kts 207°
2026-04-26 09:26 51.74672 -1.58470 262 ft 13 kts 223°
2026-04-26 09:26 51.74634 -1.58597 261 ft 13 kts 254°
2026-04-26 09:27 51.74611 -1.58735 261 ft 13 kts 253°
2026-04-26 09:27 51.74585 -1.58873 261 ft 13 kts 252°
2026-04-26 09:27 51.74558 -1.59014 261 ft 13 kts 252°
2026-04-26 09:27 51.74531 -1.59156 261 ft 13 kts 253°
2026-04-26 09:28 51.74505 -1.59299 261 ft 13 kts 254°
2026-04-26 09:28 51.74479 -1.59442 261 ft 13 kts 253°
2026-04-26 09:28 51.74452 -1.59588 261 ft 14 kts 253°
2026-04-26 09:28 51.74428 -1.59737 261 ft 14 kts 262°
2026-04-26 09:29 51.74444 -1.59886 261 ft 14 kts 293°
2026-04-26 09:29 51.74485 -1.60016 262 ft 13 kts 294°
2026-04-26 09:29 51.74490 -1.60148 261 ft 12 kts 260°
2026-04-26 09:29 51.74507 -1.60271 263 ft 11 kts 306°
2026-04-26 09:30 51.74563 -1.60352 261 ft 11 kts 319°
2026-04-26 09:30 51.74608 -1.60389 262 ft 4 kts 32°
2026-04-26 09:30 51.74618 -1.60361 261 ft 2 kts 73°
2026-04-26 09:30 51.74618 -1.60360 261 ft 0 kts 73°
2026-04-26 09:31 51.74656 -1.60153 261 ft 43 kts 73°
2026-04-26 09:32 51.74779 -1.59484 262 ft 79 kts 73°
2026-04-26 09:32 51.74962 -1.58491 262 ft 104 kts 73°
2026-04-26 09:32 51.75181 -1.57308 355 ft 109 kts 76°
2026-04-26 09:32 51.75389 -1.56099 577 ft 113 kts 77°
2026-04-26 09:33 51.75578 -1.54871 1034 ft 113 kts 79°
2026-04-26 09:33 51.75753 -1.53616 1479 ft 115 kts 83°
2026-04-26 09:33 51.75909 -1.52335 1898 ft 118 kts 85°
2026-04-26 09:33 51.76047 -1.50964 2152 ft 134 kts 86°
2026-04-26 09:34 51.76181 -1.49331 2240 ft 165 kts 86°
2026-04-26 09:34 51.76328 -1.47290 2205 ft 200 kts 87°
2026-04-26 09:34 51.76493 -1.44829 2046 ft 242 kts 84°
2026-04-26 09:34 51.76846 -1.41956 1888 ft 276 kts 87°
2026-04-26 09:35 51.76523 -1.38808 1866 ft 296 kts 111°
2026-04-26 09:35 51.75673 -1.35666 1883 ft 315 kts 116°
2026-04-26 09:35 51.74719 -1.32393 1908 ft 329 kts 116°
2026-04-26 09:35 51.73723 -1.29022 1908 ft 324 kts 116°
2026-04-26 09:36 51.72665 -1.26091 1886 ft 283 kts 133°
2026-04-26 09:36 51.71117 -1.24760 2287 ft 232 kts 171°
2026-04-26 09:36 51.69507 -1.24735 2823 ft 237 kts 180°
2026-04-26 09:36 51.67852 -1.24796 3338 ft 240 kts 179°
2026-04-26 09:37 51.66190 -1.25264 3852 ft 248 kts 201°
2026-04-26 09:37 51.64705 -1.26637 4346 ft 254 kts 209°
2026-04-26 09:37 51.63107 -1.28170 4891 ft 265 kts 208°
2026-04-26 09:37 51.61525 -1.29688 5402 ft 266 kts 210°
2026-04-26 09:38 51.59972 -1.31268 5904 ft 270 kts 211°
2026-04-26 09:38 51.58368 -1.32874 6272 ft 276 kts 210°
2026-04-26 09:38 51.56705 -1.34494 6313 ft 275 kts 210°
2026-04-26 09:38 51.55104 -1.36072 6309 ft 273 kts 211°
2026-04-26 09:39 51.53487 -1.37670 6311 ft 273 kts 210°
2026-04-26 09:39 51.51870 -1.39253 6310 ft 272 kts 211°
2026-04-26 09:39 51.50252 -1.40844 6311 ft 272 kts 211°
2026-04-26 09:39 51.48640 -1.42427 6314 ft 272 kts 210°
2026-04-26 09:40 51.47019 -1.44016 6315 ft 273 kts 210°
2026-04-26 09:40 51.45402 -1.45606 6258 ft 274 kts 210°
2026-04-26 09:40 51.43776 -1.47190 6136 ft 273 kts 210°
2026-04-26 09:40 51.42181 -1.48755 6030 ft 260 kts 210°
2026-04-26 09:41 51.40655 -1.50246 6015 ft 256 kts 210°
2026-04-26 09:41 51.39107 -1.51708 6022 ft 261 kts 208°
2026-04-26 09:41 51.37539 -1.53150 6022 ft 259 kts 208°
2026-04-26 09:41 51.35962 -1.54564 6024 ft 261 kts 207°
2026-04-26 09:42 51.34369 -1.55950 6023 ft 260 kts 207°
2026-04-26 09:42 51.32763 -1.57304 5904 ft 264 kts 206°
2026-04-26 09:42 51.31123 -1.58649 5384 ft 263 kts 205°
2026-04-26 09:42 51.29510 -1.59934 4874 ft 256 kts 204°
2026-04-26 09:43 51.27925 -1.61160 4341 ft 249 kts 203°
2026-04-26 09:43 51.26376 -1.62321 3852 ft 243 kts 202°
2026-04-26 09:43 51.24852 -1.63441 3348 ft 240 kts 201°
2026-04-26 09:43 51.23335 -1.64508 2833 ft 237 kts 200°
2026-04-26 09:44 51.21837 -1.65543 2307 ft 233 kts 200°
2026-04-26 09:44 51.20391 -1.66573 2032 ft 219 kts 200°
2026-04-26 09:44 51.19070 -1.67503 1982 ft 194 kts 199°
2026-04-26 09:44 51.18033 -1.68461 1928 ft 154 kts 221°
2026-04-26 09:45 51.17619 -1.69864 1856 ft 134 kts 248°
2026-04-26 09:45 51.17266 -1.71282 1476 ft 139 kts 237°
2026-04-26 09:45 51.16714 -1.72543 988 ft 144 kts 227°
2026-04-26 09:45 51.16037 -1.73764 419 ft 144 kts 226°
2026-04-26 09:46 51.15478 -1.74827 394 ft 104 kts 223°
2026-04-26 09:46 51.15083 -1.75560 400 ft 66 kts 231°
2026-04-26 09:46 51.14936 -1.75854 398 ft 7 kts 241°
2026-04-26 09:46 51.14938 -1.75879 398 ft 1 kts 311°
2026-04-26 09:47 51.14965 -1.75913 400 ft 9 kts 322°
2026-04-26 09:47 51.15036 -1.75950 401 ft 13 kts 24°
2026-04-26 09:47 51.15111 -1.75823 400 ft 16 kts 51°
2026-04-26 09:47 51.15184 -1.75682 400 ft 17 kts 51°
2026-04-26 09:48 51.15259 -1.75541 399 ft 17 kts 50°
2026-04-26 09:48 51.15335 -1.75396 395 ft 17 kts 50°
2026-04-26 09:48 51.15414 -1.75246 397 ft 18 kts 50°
2026-04-26 09:48 51.15491 -1.75099 394 ft 17 kts 50°
2026-04-26 09:49 51.15562 -1.74965 396 ft 15 kts 48°
2026-04-26 09:49 51.15639 -1.74858 393 ft 14 kts 34°
2026-04-26 09:49 51.15718 -1.74777 392 ft 13 kts 32°
2026-04-26 09:49 51.15795 -1.74712 390 ft 12 kts 27°
2026-04-26 09:50 51.15869 -1.74655 392 ft 12 kts 25°
2026-04-26 09:50 51.15939 -1.74601 392 ft 11 kts 26°
2026-04-26 09:50 51.15999 -1.74536 391 ft 10 kts 45°
2026-04-26 09:50 51.16042 -1.74457 392 ft 9 kts 53°
2026-04-26 09:51 51.16069 -1.74372 392 ft 9 kts 69°
2026-04-26 09:51 51.16096 -1.74260 391 ft 13 kts 69°
2026-04-26 09:51 51.16131 -1.74116 394 ft 15 kts 69°
2026-04-26 09:51 51.16172 -1.73948 393 ft 17 kts 68°
2026-04-26 09:52 51.16220 -1.73763 393 ft 18 kts 63°
2026-04-26 09:52 51.16364 -1.73806 394 ft 11 kts 295°
2026-04-26 09:52 51.16387 -1.73922 392 ft 11 kts 285°
2026-04-26 09:53 51.16408 -1.74036 394 ft 11 kts 285°
2026-04-26 09:53 51.16428 -1.74150 391 ft 11 kts 285°
2026-04-26 09:53 51.16447 -1.74264 396 ft 11 kts 285°
2026-04-26 09:53 51.16453 -1.74377 391 ft 9 kts 245°
2026-04-26 09:54 51.16404 -1.74397 396 ft 7 kts 160°
2026-04-26 09:54 51.16381 -1.74368 391 ft 5 kts 117°
2026-04-26 09:54 51.16385 -1.74330 395 ft 3 kts 66°
2026-04-26 09:54 51.16388 -1.74322 395 ft 0 kts 60°